»·PEaware :: C-GTGM CYTZ-CYAM

C-GTGM :: CYTZ-CYAM

FLIGHT INFORMATION

Flight Status: Arrived
Operator: Privately registered:
Canada
More flights under this callsign
Pilot: Thomas N. (7419)
Aircraft: SAAB 340
(SF34)
More flights by this aircraft type
Origin: CYTZ Toronto/City Centre
Canada
Destination: CYAM Sault Ste Marie
Canada
More flights between these airports :: More routes between these airports
Route: IKLEN TONNY YEE SILVU
File this flight plan on PilotEdge
Remarks:
Altitude:
(Current/Filed)
24,000ft
Speed:
(Current/Filed)
200kts
Departed: 24-Oct-15 04:43 PM
Arrived: 24-Oct-15 06:11 PM
Distance/Time
Traveled:
212nm/1:28
Distance/Time
To Go:
Arrived

Flight Plot

Page will automatically refresh every two minutes.


Map Options




Map Legend


Flown Route
Filed Route
Departure Airport
Arrival Airport
Navaid (VOR, NDB)
Fix

Horizontal Profiles

Position Reports

Time Latitude Longitude Heading Altitude Ground
Speed
24-Oct-15 16:31 43.630974 -79.397441 142 255ft 0kts
24-Oct-15 16:32 43.630733 -79.397221 144 255ft 0kts
24-Oct-15 16:33 43.630733 -79.397221 144 255ft 0kts
24-Oct-15 16:34 43.629765 -79.397869 267 255ft 12kts
24-Oct-15 16:35 43.630144 -79.399903 293 255ft 10kts
24-Oct-15 16:36 43.628351 -79.403177 213 255ft 7kts
24-Oct-15 16:37 43.628286 -79.403229 208 255ft 0kts
24-Oct-15 16:38 43.628286 -79.403229 208 255ft 0kts
24-Oct-15 16:39 43.627836 -79.403263 157 255ft 9kts
24-Oct-15 16:40 43.627680 -79.402405 72 255ft 0kts
24-Oct-15 16:41 43.627830 -79.401762 71 255ft 32kts
24-Oct-15 16:42 43.636337 -79.366293 73 852ft 160kts
24-Oct-15 16:43 43.647559 -79.310617 94 2128ft 161kts
24-Oct-15 16:44 43.621321 -79.262019 130 2120ft 154kts
24-Oct-15 16:45 43.600418 -79.212560 63 3223ft 156kts
24-Oct-15 16:46 43.631272 -79.220845 307 4528ft 173kts
24-Oct-15 16:47 43.666845 -79.256325 329 5836ft 172kts
24-Oct-15 16:48 43.706079 -79.295793 325 7060ft 178kts
24-Oct-15 16:49 43.743758 -79.336320 324 8022ft 183kts
24-Oct-15 16:50 43.783740 -79.379965 324 9010ft 187kts
24-Oct-15 16:51 43.824257 -79.424386 323 9946ft 190kts
24-Oct-15 16:52 43.864979 -79.469151 323 10775ft 193kts
24-Oct-15 16:53 43.907173 -79.515610 323 11603ft 200kts
24-Oct-15 16:54 43.950215 -79.563091 323 12734ft 200kts
24-Oct-15 16:55 43.994211 -79.611715 324 13947ft 204kts
24-Oct-15 16:56 44.038846 -79.661131 324 15106ft 206kts
24-Oct-15 16:57 44.089501 -79.693332 353 16113ft 203kts
24-Oct-15 16:58 44.142705 -79.709234 350 16972ft 206kts
24-Oct-15 16:59 44.198689 -79.725762 356 17501ft 207kts
24-Oct-15 17:00 44.256168 -79.735615 356 17768ft 210kts
24-Oct-15 17:01 44.311054 -79.745253 356 17994ft 212kts
24-Oct-15 17:02 44.367903 -79.755307 356 18201ft 220kts
24-Oct-15 17:03 44.428609 -79.766047 356 19009ft 223kts
24-Oct-15 17:04 44.491713 -79.777202 355 19493ft 232kts
24-Oct-15 17:05 44.555715 -79.788596 355 19933ft 236kts
24-Oct-15 17:06 44.609323 -79.834829 300 19958ft 249kts
24-Oct-15 17:07 44.651694 -79.916234 307 19931ft 264kts
24-Oct-15 17:08 44.697656 -79.998156 307 19930ft 269kts
24-Oct-15 17:09 44.744566 -80.081622 308 19931ft 274kts
24-Oct-15 17:10 44.789162 -80.160490 308 19928ft 276kts
24-Oct-15 17:11 44.837026 -80.245523 305 19910ft 277kts
24-Oct-15 17:12 44.884819 -80.331196 302 19890ft 275kts
24-Oct-15 17:13 44.931419 -80.415079 301 19869ft 267kts
24-Oct-15 17:14 44.976484 -80.496532 301 19868ft 263kts
24-Oct-15 17:15 45.021720 -80.578404 301 19869ft 264kts
24-Oct-15 17:16 45.067146 -80.660810 301 19871ft 267kts
24-Oct-15 17:17 45.112626 -80.743478 301 19870ft 265kts
24-Oct-15 17:18 45.149142 -80.831088 291 19870ft 256kts
24-Oct-15 17:19 45.182976 -80.919627 291 19870ft 255kts
24-Oct-15 17:20 45.216828 -81.008227 291 19870ft 255kts
24-Oct-15 17:21 45.250787 -81.097368 291 19871ft 257kts
24-Oct-15 17:22 45.285147 -81.186827 291 19873ft 260kts
24-Oct-15 17:23 45.319568 -81.277613 291 19872ft 261kts
24-Oct-15 17:24 45.354092 -81.369135 291 19873ft 263kts
24-Oct-15 17:25 45.388728 -81.461201 291 19873ft 264kts
24-Oct-15 17:26 45.423257 -81.553200 291 19872ft 264kts
24-Oct-15 17:27 45.457680 -81.645425 290 19877ft 261kts
24-Oct-15 17:28 45.490374 -81.733355 292 19862ft 239kts
24-Oct-15 17:29 45.519641 -81.812428 295 19851ft 212kts
24-Oct-15 17:30 45.546520 -81.884897 296 19847ft 203kts
24-Oct-15 17:31 45.572434 -81.955032 296 19851ft 200kts
24-Oct-15 17:32 45.598282 -82.025264 297 19851ft 199kts
24-Oct-15 17:33 45.624072 -82.095404 296 19850ft 199kts
24-Oct-15 17:34 45.645665 -82.153374 294 19855ft 200kts
24-Oct-15 17:35 45.675904 -82.235838 292 19855ft 202kts
24-Oct-15 17:36 45.702024 -82.307586 292 19854ft 204kts
24-Oct-15 17:37 45.723764 -82.367516 293 19854ft 203kts
24-Oct-15 17:38 45.749913 -82.439647 293 19855ft 206kts
24-Oct-15 17:39 45.776494 -82.513154 294 19853ft 210kts
24-Oct-15 17:40 45.803309 -82.587497 295 19853ft 210kts
24-Oct-15 17:41 45.830105 -82.661904 295 19852ft 210kts
24-Oct-15 17:42 45.856884 -82.736486 294 19851ft 211kts
24-Oct-15 17:43 45.883870 -82.811878 292 19850ft 212kts
24-Oct-15 17:44 45.910867 -82.887689 291 19850ft 214kts
24-Oct-15 17:45 45.938152 -82.964522 292 19850ft 215kts
24-Oct-15 17:46 45.965288 -83.041118 292 19848ft 214kts
24-Oct-15 17:47 45.992238 -83.117234 294 19725ft 216kts
24-Oct-15 17:48 46.020459 -83.196301 295 18446ft 226kts
24-Oct-15 17:49 46.049391 -83.278513 295 17161ft 236kts
24-Oct-15 17:50 46.079641 -83.364678 295 15879ft 245kts
24-Oct-15 17:51 46.110409 -83.452767 295 14587ft 247kts
24-Oct-15 17:52 46.141409 -83.541825 296 13287ft 249kts
24-Oct-15 17:53 46.171788 -83.629387 296 11969ft 234kts
24-Oct-15 17:54 46.199817 -83.710434 296 10645ft 221kts
24-Oct-15 17:55 46.226935 -83.789050 296 9336ft 218kts
24-Oct-15 17:56 46.253901 -83.867476 295 8023ft 217kts
24-Oct-15 17:57 46.280710 -83.945703 296 6739ft 207kts
24-Oct-15 17:58 46.302292 -84.008817 295 5858ft 150kts
24-Oct-15 17:59 46.318968 -84.057771 296 4999ft 124kts
24-Oct-15 18:00 46.333344 -84.099981 298 4146ft 111kts
24-Oct-15 18:01 46.347823 -84.141868 296 3396ft 134kts
24-Oct-15 18:02 46.367174 -84.186965 305 3015ft 129kts
24-Oct-15 18:03 46.384701 -84.232510 298 2441ft 139kts
24-Oct-15 18:04 46.400901 -84.280833 296 2308ft 112kts
24-Oct-15 18:05 46.412943 -84.316687 303 2099ft 113kts
24-Oct-15 18:06 46.431595 -84.356640 298 1475ft 121kts
24-Oct-15 18:07 46.445650 -84.398992 297 1449ft 125kts
24-Oct-15 18:08 46.464714 -84.444078 320 1418ft 137kts
24-Oct-15 18:09 46.478520 -84.487973 294 854ft 121kts
24-Oct-15 18:10 46.483929 -84.507966 25 635ft 14kts
24-Oct-15 18:11 46.485642 -84.502667 84 635ft 0kts
24-Oct-15 18:12 46.485623 -84.501784 62 635ft 0kts
24-Oct-15 18:13 46.485623 -84.501784 62 635ft 0kts
24-Oct-15 18:14 46.485623 -84.501784 62 635ft 0kts
24-Oct-15 18:15 46.485623 -84.501784 62 635ft 0kts
24-Oct-15 18:16 46.485623 -84.501784 62 635ft 0kts
24-Oct-15 18:17 46.485623 -84.501784 62 635ft 0kts
24-Oct-15 18:18 46.485623 -84.501784 62 635ft 0kts
24-Oct-15 18:19 46.479896 -84.493604 291 729ft 111kts
24-Oct-15 18:20 45.957193 -83.018240 292 19849ft 215kts
24-Oct-15 18:21 45.984267 -83.094827 294 19859ft 212kts

Navigation Log

Ident Type
Flight plan parsing failed, navigation log unavailable